createdAt,value
2023-05-15T00:01:54.178Z,11.60
2023-05-15T00:06:07.350Z,10.65
2023-05-15T00:10:25.471Z,9.63
2023-05-15T00:14:38.196Z,9.23
2023-05-15T00:18:50.649Z,9.43
2023-05-15T00:23:03.111Z,8.63
2023-05-15T00:27:20.812Z,8.13
2023-05-15T00:31:34.490Z,8.80
2023-05-15T00:35:47.014Z,8.68
2023-05-15T00:39:59.744Z,9.75
2023-05-15T00:44:13.193Z,9.00
2023-05-15T00:48:26.557Z,10.00
2023-05-15T00:52:39.272Z,10.80
2023-05-15T00:56:52.990Z,10.82
2023-05-15T01:01:08.309Z,10.65
2023-05-15T01:05:22.079Z,10.52
2023-05-15T01:09:36.273Z,11.38
2023-05-15T01:13:48.752Z,11.23
2023-05-15T01:18:01.867Z,12.68
2023-05-15T01:22:47.461Z,13.05
2023-05-15T01:27:02.601Z,13.60
2023-05-15T01:31:19.808Z,12.98
2023-05-15T01:35:40.099Z,13.48
2023-05-15T01:39:58.725Z,15.90
2023-05-15T01:44:29.511Z,15.38
2023-05-15T01:48:44.412Z,15.25
2023-05-15T01:52:59.067Z,14.57
2023-05-15T01:57:13.001Z,14.57
2023-05-15T02:01:27.014Z,14.35
2023-05-15T02:05:39.670Z,16.85
2023-05-15T02:09:56.332Z,15.23
2023-05-15T02:14:11.663Z,14.40
2023-05-15T02:18:24.621Z,14.55
2023-05-15T02:22:37.265Z,14.25
2023-05-15T02:27:14.121Z,13.13
2023-05-15T02:31:37.116Z,12.85
2023-05-15T02:35:59.525Z,12.80
2023-05-15T02:40:13.937Z,13.68
2023-05-15T02:44:27.638Z,12.45
2023-05-15T02:48:42.080Z,13.68
2023-05-15T02:53:10.890Z,15.50
2023-05-15T02:57:23.275Z,16.17
2023-05-15T03:01:35.832Z,18.23
2023-05-15T03:05:48.462Z,17.15
2023-05-15T03:10:00.773Z,19.02
2023-05-15T03:14:13.237Z,20.00
2023-05-15T03:18:25.703Z,20.60
2023-05-15T03:22:38.072Z,23.42
2023-05-15T03:26:50.518Z,22.42
2023-05-15T03:31:05.129Z,23.02
2023-05-15T03:35:17.602Z,23.23
2023-05-15T03:39:29.972Z,24.08
2023-05-15T03:43:42.273Z,20.15
2023-05-15T03:47:54.713Z,20.27
2023-05-15T03:52:07.673Z,21.23
2023-05-15T03:56:20.180Z,19.52
2023-05-15T04:00:32.496Z,21.20
2023-05-15T04:04:45.006Z,20.75
2023-05-15T04:08:57.425Z,19.23
2023-05-15T04:13:10.342Z,19.98
2023-05-15T04:17:23.850Z,19.23
2023-05-15T04:21:36.169Z,18.73
2023-05-15T04:25:49.950Z,16.88
2023-05-15T04:30:02.902Z,16.48
2023-05-15T04:34:15.303Z,15.32
2023-05-15T04:38:27.751Z,17.15
2023-05-15T04:42:40.173Z,16.23
2023-05-15T04:46:52.500Z,16.95
2023-05-15T04:51:05.122Z,16.65
2023-05-15T04:55:17.642Z,17.15
2023-05-15T04:59:30.144Z,16.77
2023-05-15T05:03:42.625Z,16.88
2023-05-15T05:07:55.132Z,18.23
2023-05-15T05:12:08.757Z,17.42
2023-05-15T05:16:21.161Z,21.75
2023-05-15T05:20:33.585Z,22.90
2023-05-15T05:24:46.171Z,24.38
2023-05-15T05:28:58.708Z,25.70
2023-05-15T05:33:11.029Z,26.27
2023-05-15T05:37:23.535Z,28.25
2023-05-15T05:41:36.056Z,30.63
2023-05-15T05:45:48.723Z,27.23
2023-05-15T05:50:01.212Z,25.42
2023-05-15T05:54:15.410Z,23.95
2023-05-15T05:58:27.869Z,24.95
2023-05-15T06:02:40.927Z,24.48
2023-05-15T06:06:54.102Z,24.33
2023-05-15T06:11:07.692Z,21.33
2023-05-15T06:15:20.024Z,19.88
2023-05-15T06:19:32.803Z,18.55
2023-05-15T06:23:45.342Z,18.98
2023-05-15T06:27:57.865Z,17.52
2023-05-15T06:32:10.368Z,17.75
2023-05-15T06:36:22.851Z,18.67
2023-05-15T06:40:35.801Z,18.45
2023-05-15T06:44:50.007Z,19.45
2023-05-15T06:49:02.467Z,18.63
2023-05-15T06:53:15.858Z,17.80
2023-05-15T06:57:28.301Z,16.92
2023-05-15T07:01:40.801Z,15.75
2023-05-15T07:05:54.238Z,16.67
2023-05-15T07:10:07.235Z,16.38
2023-05-15T07:14:19.754Z,16.98
2023-05-15T07:18:32.519Z,14.63
2023-05-15T07:22:55.697Z,15.73
2023-05-15T07:27:10.663Z,15.50
2023-05-15T07:31:23.085Z,15.73
2023-05-15T07:35:36.861Z,16.30
2023-05-15T07:39:53.712Z,15.90
2023-05-15T07:44:06.622Z,14.63
2023-05-15T07:48:20.545Z,14.93
2023-05-15T07:52:32.992Z,16.70
2023-05-15T07:56:45.310Z,17.13
2023-05-15T08:00:57.649Z,18.45
2023-05-15T08:05:10.215Z,20.45
2023-05-15T08:09:22.649Z,18.02
2023-05-15T08:13:35.293Z,19.45
2023-05-15T08:17:47.838Z,14.50
2023-05-15T08:22:00.402Z,15.07
2023-05-15T08:26:12.880Z,16.27
2023-05-15T08:30:25.308Z,16.50
2023-05-15T08:34:39.042Z,16.25
2023-05-15T08:38:51.536Z,16.08
2023-05-15T08:43:17.028Z,15.10
2023-05-15T08:47:33.152Z,14.75
2023-05-15T08:51:45.903Z,12.25
2023-05-15T08:55:58.768Z,12.90
2023-05-15T09:00:15.147Z,11.65
2023-05-15T09:04:27.615Z,10.88
2023-05-15T09:08:41.270Z,11.05
2023-05-15T09:12:55.724Z,10.48
2023-05-15T09:17:13.552Z,9.80
2023-05-15T09:21:28.542Z,9.27
2023-05-15T09:25:43.039Z,7.82
2023-05-15T09:29:58.224Z,8.63
2023-05-15T09:34:10.790Z,7.60
2023-05-15T09:38:23.225Z,7.47
2023-05-15T09:42:36.983Z,7.50
2023-05-15T09:46:51.312Z,7.03
2023-05-15T09:51:06.126Z,7.53
2023-05-15T09:55:20.576Z,7.25
2023-05-15T09:59:33.296Z,8.07
2023-05-15T10:03:45.788Z,7.55
2023-05-15T10:07:59.106Z,7.75
2023-05-15T10:12:12.173Z,7.80
2023-05-15T10:16:26.008Z,7.13
2023-05-15T10:20:39.177Z,7.90
2023-05-15T10:25:00.855Z,8.40
2023-05-15T10:29:15.215Z,6.85
2023-05-15T10:33:28.426Z,8.65
2023-05-15T10:37:41.276Z,8.43
2023-05-15T10:41:54.860Z,7.40
2023-05-15T10:46:08.130Z,7.13
2023-05-15T10:50:20.827Z,6.93
2023-05-15T10:54:34.283Z,7.60
2023-05-15T10:58:51.230Z,6.70
2023-05-15T11:03:05.649Z,5.75
2023-05-15T11:07:18.551Z,7.35
2023-05-15T11:11:52.862Z,7.43
2023-05-15T11:16:05.825Z,8.60
2023-05-15T11:20:18.276Z,11.25
2023-05-15T11:24:32.645Z,8.80
2023-05-15T11:28:46.048Z,8.02
2023-05-15T11:33:04.603Z,7.13
2023-05-15T11:37:20.204Z,9.88
2023-05-15T11:41:32.725Z,7.55
2023-05-15T11:45:48.337Z,6.85
2023-05-15T11:50:01.121Z,6.47
2023-05-15T11:54:14.475Z,6.30
2023-05-15T11:58:27.438Z,6.72
2023-05-15T12:02:40.120Z,5.90
2023-05-15T12:06:52.719Z,7.28
2023-05-15T12:11:06.042Z,5.40
2023-05-15T12:15:18.529Z,6.25
2023-05-15T12:19:31.638Z,5.85
2023-05-15T12:24:03.273Z,6.00
2023-05-15T12:28:19.299Z,6.35
2023-05-15T12:32:34.037Z,6.25
2023-05-15T12:36:46.587Z,6.70
2023-05-15T12:40:59.078Z,6.20
2023-05-15T12:45:18.745Z,7.63
2023-05-15T12:49:31.608Z,7.15
2023-05-15T12:53:44.122Z,7.13
2023-05-15T12:58:08.362Z,7.20
2023-05-15T13:02:22.574Z,6.53
2023-05-15T13:06:46.577Z,7.20
2023-05-15T13:11:01.146Z,6.32
2023-05-15T13:15:28.713Z,7.10
2023-05-15T13:19:41.242Z,7.63
2023-05-15T13:23:53.754Z,6.93
2023-05-15T13:28:07.807Z,6.15
2023-05-15T13:32:20.227Z,7.28
2023-05-15T13:36:32.743Z,6.78
2023-05-15T13:40:45.298Z,6.97
2023-05-15T13:45:00.609Z,6.93
2023-05-15T13:49:13.269Z,6.72
2023-05-15T13:53:25.988Z,6.40
2023-05-15T13:57:39.964Z,6.63
2023-05-15T14:01:52.470Z,7.50
2023-05-15T14:06:05.240Z,7.28
2023-05-15T14:10:17.742Z,7.28
2023-05-15T14:14:30.212Z,6.75
2023-05-15T14:18:42.818Z,8.02
2023-05-15T14:22:55.314Z,7.00
2023-05-15T14:27:08.020Z,6.95
2023-05-15T14:31:20.411Z,6.75
2023-05-15T14:35:33.363Z,6.90
2023-05-15T14:39:45.898Z,6.93
2023-05-15T14:43:58.331Z,7.68
2023-05-15T14:48:12.028Z,8.10
2023-05-15T14:52:24.575Z,6.78
2023-05-15T14:56:37.005Z,7.57
2023-05-15T15:00:49.520Z,7.20
2023-05-15T15:05:01.932Z,7.32
2023-05-15T15:09:14.436Z,7.55
2023-05-15T15:13:27.567Z,6.70
2023-05-15T15:17:39.929Z,7.93
2023-05-15T15:21:52.356Z,7.75
2023-05-15T15:26:04.800Z,7.53
2023-05-15T15:30:17.708Z,7.40
2023-05-15T15:34:30.171Z,7.75
2023-05-15T15:38:44.035Z,7.60
2023-05-15T15:42:56.799Z,7.45
2023-05-15T15:47:09.352Z,8.18
2023-05-15T15:51:21.750Z,7.28
2023-05-15T15:55:34.223Z,8.02
2023-05-15T15:59:47.358Z,7.68
2023-05-15T16:03:59.770Z,6.80
2023-05-15T16:08:12.320Z,6.40
2023-05-15T16:12:25.085Z,6.50
2023-05-15T16:16:37.664Z,6.45
2023-05-15T16:20:50.218Z,5.68
2023-05-15T16:25:03.243Z,6.50
2023-05-15T16:29:16.383Z,5.20
2023-05-15T16:33:33.277Z,4.90
2023-05-15T16:37:45.988Z,5.05
2023-05-15T16:41:58.810Z,4.63
2023-05-15T16:46:11.317Z,4.53
2023-05-15T16:50:24.377Z,4.65
2023-05-15T16:54:37.080Z,4.75
2023-05-15T16:58:50.929Z,4.65
2023-05-15T17:03:06.016Z,4.20
2023-05-15T17:07:18.770Z,4.72
2023-05-15T17:11:31.268Z,4.15
2023-05-15T17:15:43.760Z,4.35
2023-05-15T17:20:00.393Z,5.13
2023-05-15T17:24:16.109Z,4.78
2023-05-15T17:28:28.589Z,4.10
2023-05-15T17:32:41.311Z,5.38
2023-05-15T17:36:53.822Z,5.35
2023-05-15T17:41:07.514Z,5.40
2023-05-15T17:45:19.964Z,5.00
2023-05-15T17:49:34.551Z,5.03
2023-05-15T17:53:48.415Z,6.95
2023-05-15T17:58:00.911Z,4.47
2023-05-15T18:02:13.487Z,6.00
2023-05-15T18:06:26.306Z,5.80
2023-05-15T18:10:38.688Z,5.28
2023-05-15T18:14:51.088Z,5.90
2023-05-15T18:19:04.526Z,7.30
2023-05-15T18:23:19.979Z,7.40
2023-05-15T18:27:32.318Z,7.65
2023-05-15T18:31:45.107Z,7.82
2023-05-15T18:35:57.475Z,7.20
2023-05-15T18:40:10.864Z,7.60
2023-05-15T18:44:23.163Z,8.98
2023-05-15T18:48:35.706Z,8.40
2023-05-15T18:52:49.817Z,8.13
2023-05-15T18:57:02.361Z,8.85
2023-05-15T19:01:14.784Z,8.68
2023-05-15T19:05:27.980Z,11.07
2023-05-15T19:09:40.497Z,11.93
2023-05-15T19:13:53.182Z,11.85
2023-05-15T19:18:06.873Z,9.60
2023-05-15T19:22:19.569Z,13.18
2023-05-15T19:26:32.429Z,5.07
2023-05-15T19:30:44.790Z,4.95
2023-05-15T19:34:57.180Z,4.75
2023-05-15T19:39:09.583Z,4.30
2023-05-15T19:43:22.119Z,4.03
2023-05-15T19:47:34.520Z,4.50
2023-05-15T19:51:47.061Z,4.65
2023-05-15T19:55:59.606Z,4.05
2023-05-15T20:00:12.807Z,3.92
2023-05-15T20:04:26.202Z,4.35
2023-05-15T20:08:39.443Z,3.70
2023-05-15T20:12:52.050Z,4.47
2023-05-15T20:17:04.931Z,3.53
2023-05-15T20:21:17.410Z,4.40
2023-05-15T20:25:30.909Z,4.20
2023-05-15T20:29:43.381Z,4.30
2023-05-15T20:33:57.325Z,4.00
2023-05-15T20:38:10.777Z,3.67
2023-05-15T20:42:24.324Z,4.30
2023-05-15T20:46:40.065Z,4.05
2023-05-15T20:50:53.793Z,4.10
2023-05-15T20:55:16.311Z,3.70
2023-05-15T20:59:28.834Z,3.45
2023-05-15T21:03:41.426Z,3.60
2023-05-15T21:07:53.842Z,3.80
2023-05-15T21:12:06.832Z,4.40
2023-05-15T21:16:19.349Z,3.53
2023-05-15T21:20:32.975Z,4.18
2023-05-15T21:24:47.328Z,4.70
2023-05-15T21:29:00.578Z,3.63
2023-05-15T21:33:13.292Z,3.55
2023-05-15T21:37:25.768Z,3.35
2023-05-15T21:41:38.212Z,3.33
2023-05-15T21:45:50.938Z,2.85
2023-05-15T21:50:03.528Z,3.17
2023-05-15T21:54:16.171Z,2.95
2023-05-15T21:58:29.162Z,4.20
2023-05-15T22:02:41.985Z,4.03
2023-05-15T22:06:54.461Z,3.72
2023-05-15T22:11:07.634Z,3.67
2023-05-15T22:15:20.120Z,3.75
2023-05-15T22:19:33.343Z,3.88
2023-05-15T22:23:46.190Z,3.83
2023-05-15T22:27:58.926Z,3.30
2023-05-15T22:32:11.278Z,3.20
2023-05-15T22:36:26.943Z,4.28
2023-05-15T22:40:40.099Z,3.75
2023-05-15T22:44:54.254Z,4.20
2023-05-15T22:49:10.126Z,3.80
2023-05-15T22:53:22.449Z,3.75
2023-05-15T22:57:34.836Z,3.67
2023-05-15T23:01:48.047Z,4.28
2023-05-15T23:06:00.414Z,4.30
2023-05-15T23:10:12.740Z,4.07
2023-05-15T23:14:25.727Z,4.43
2023-05-15T23:18:38.093Z,4.18
2023-05-15T23:22:50.450Z,4.30
2023-05-15T23:27:02.784Z,3.75
2023-05-15T23:31:15.416Z,4.40
2023-05-15T23:35:27.878Z,5.80
2023-05-15T23:39:40.288Z,4.20
2023-05-15T23:43:52.659Z,5.20
2023-05-15T23:48:05.135Z,4.40
2023-05-15T23:52:17.670Z,5.10
2023-05-15T23:56:30.209Z,5.05
